New Salem, PA (15468)

7:43 AM EDT on August 27, 2016 (GMT -0400)
Uniontown | | Change Station

Elev 1102 ft 39.90 °N, 79.73 °W | Updated 13 seconds ago

Clear
Clear
68.4 °F
Feels Like 68.4 °F
N
2.3
Wind Variable Wind from NNE
Gusts 2.3 mph

Today
High -- | Low -- °F
--% Chance of Precip.
Yesterday
High -- | Low -- °F
Precip. -- in
Pressure 30.17 in
Visibility 5.0 miles
Clouds Clear
Dew Point 67 °F
Humidity 96%
Rainfall 0.00 in
Snow Depth Not available.
6:42 AM 7:57 PM
Waning Crescent, 25% visible
METAR KMGW 271053Z 00000KT 5SM BR CLR 21/19 A3020 RMK AO2 SLP215 T02060194
Pressure 30.17 in
Visibility 5.0 miles
Clouds Clear
Dew Point 67 °F
Humidity 96%
Rainfall 0.00 in
Snow Depth Not available.
6:42 AM 7:57 PM
Waning Crescent, 25% visible
METAR KMGW 271053Z 00000KT 5SM BR CLR 21/19 A3020 RMK AO2 SLP215 T02060194

10-Day Weather Forecast

Almanac

Astronomy

Aug. 27, 2016 Rise Set
Actual Time
Civil Twilight
Nautical Twilight
Astronomical Twilight
Moon
Length of Visible Light
Length of Day
Tomorrow will be .
, % of the Moon is Illuminated

Today's Extremes

State Highs State Lows

Community

WunderPhotos

Upload Photos

1,935,325 photos uploaded!

WunderBlog® & News

Nearby

Air Quality

  Air Quality AQ Index Pollutant
Not available.

Snow Depth

Station Depth Elevation

Earthquake Activity

City Distance Mag. Time & Date
Minimum magnitude displayed is 2.5.

Coastal Water Temperatures

Place Temperature

Stations

Nearby Weather Stations

Station Location Temp. Windchill Dew Point Humidity Wind Precip. Elev Updated Type
                   

Watches & Warnings

There are currently no watches in effect.